sensor_id;sensor_type;location;lat;lon;timestamp;temperature;humidity
29417;DHT22;28421;51.030;4.006;2022-07-06T00:01:23;13.20;99.90
29417;DHT22;28421;51.030;4.006;2022-07-06T00:03:49;13.20;99.90
29417;DHT22;28421;51.030;4.006;2022-07-06T00:06:15;12.90;99.90
29417;DHT22;28421;51.030;4.006;2022-07-06T00:08:42;13.00;99.90
29417;DHT22;28421;51.030;4.006;2022-07-06T00:13:34;13.00;99.90
29417;DHT22;28421;51.030;4.006;2022-07-06T00:16:00;13.00;99.90
29417;DHT22;28421;51.030;4.006;2022-07-06T00:18:26;13.50;99.90
29417;DHT22;28421;51.030;4.006;2022-07-06T00:20:52;12.90;99.90
29417;DHT22;28421;51.030;4.006;2022-07-06T00:23:17;13.00;99.90
29417;DHT22;28421;51.030;4.006;2022-07-06T00:28:09;12.80;99.90
29417;DHT22;28421;51.030;4.006;2022-07-06T00:30:35;12.80;99.90
29417;DHT22;28421;51.030;4.006;2022-07-06T00:33:00;12.70;99.90
29417;DHT22;28421;51.030;4.006;2022-07-06T00:35:27;12.60;99.90
29417;DHT22;28421;51.030;4.006;2022-07-06T00:37:53;12.60;99.90
29417;DHT22;28421;51.030;4.006;2022-07-06T00:40:19;12.60;99.90
29417;DHT22;28421;51.030;4.006;2022-07-06T00:42:46;12.40;99.90
29417;DHT22;28421;51.030;4.006;2022-07-06T00:45:14;12.30;99.90
29417;DHT22;28421;51.030;4.006;2022-07-06T00:47:41;12.60;99.90
29417;DHT22;28421;51.030;4.006;2022-07-06T00:50:09;12.10;99.90
29417;DHT22;28421;51.030;4.006;2022-07-06T00:52:42;12.60;99.90
29417;DHT22;28421;51.030;4.006;2022-07-06T00:55:09;12.70;99.90
29417;DHT22;28421;51.030;4.006;2022-07-06T00:57:36;12.80;99.90
29417;DHT22;28421;51.030;4.006;2022-07-06T01:00:04;13.00;99.90
29417;DHT22;28421;51.030;4.006;2022-07-06T01:02:33;13.00;99.90
29417;DHT22;28421;51.030;4.006;2022-07-06T01:05:00;13.30;99.90
29417;DHT22;28421;51.030;4.006;2022-07-06T01:07:27;13.20;99.90
29417;DHT22;28421;51.030;4.006;2022-07-06T01:09:53;13.10;99.90
29417;DHT22;28421;51.030;4.006;2022-07-06T01:12:20;12.60;99.90
29417;DHT22;28421;51.030;4.006;2022-07-06T01:14:46;12.70;99.90
29417;DHT22;28421;51.030;4.006;2022-07-06T01:17:13;12.30;99.90
29417;DHT22;28421;51.030;4.006;2022-07-06T01:19:40;12.20;99.90
29417;DHT22;28421;51.030;4.006;2022-07-06T01:22:06;12.20;99.90
29417;DHT22;28421;51.030;4.006;2022-07-06T01:24:35;12.40;99.90
29417;DHT22;28421;51.030;4.006;2022-07-06T01:27:01;11.90;99.90
29417;DHT22;28421;51.030;4.006;2022-07-06T01:29:27;12.30;99.90
29417;DHT22;28421;51.030;4.006;2022-07-06T01:34:19;12.10;99.90
29417;DHT22;28421;51.030;4.006;2022-07-06T01:36:45;12.10;99.90
29417;DHT22;28421;51.030;4.006;2022-07-06T01:39:11;11.90;99.90
29417;DHT22;28421;51.030;4.006;2022-07-06T01:41:37;12.30;99.90
29417;DHT22;28421;51.030;4.006;2022-07-06T01:44:04;12.00;99.90
29417;DHT22;28421;51.030;4.006;2022-07-06T01:46:30;12.40;99.90
29417;DHT22;28421;51.030;4.006;2022-07-06T01:48:56;12.40;99.90
29417;DHT22;28421;51.030;4.006;2022-07-06T01:51:23;12.70;99.90
29417;DHT22;28421;51.030;4.006;2022-07-06T01:53:50;12.80;99.90
29417;DHT22;28421;51.030;4.006;2022-07-06T01:56:19;12.80;99.90
29417;DHT22;28421;51.030;4.006;2022-07-06T02:01:17;10.50;99.90
29417;DHT22;28421;51.030;4.006;2022-07-06T02:03:43;12.20;99.90
29417;DHT22;28421;51.030;4.006;2022-07-06T02:06:10;12.30;99.90
29417;DHT22;28421;51.030;4.006;2022-07-06T02:08:36;12.30;99.90
29417;DHT22;28421;51.030;4.006;2022-07-06T02:11:03;12.10;99.90
29417;DHT22;28421;51.030;4.006;2022-07-06T02:13:30;12.20;99.90
29417;DHT22;28421;51.030;4.006;2022-07-06T02:15:56;12.20;99.90
29417;DHT22;28421;51.030;4.006;2022-07-06T02:18:21;12.20;99.90
29417;DHT22;28421;51.030;4.006;2022-07-06T02:20:47;12.20;99.90
29417;DHT22;28421;51.030;4.006;2022-07-06T02:25:39;12.20;99.90
29417;DHT22;28421;51.030;4.006;2022-07-06T02:30:31;12.10;99.90
29417;DHT22;28421;51.030;4.006;2022-07-06T02:35:24;12.10;99.90
29417;DHT22;28421;51.030;4.006;2022-07-06T02:37:50;11.90;99.90
29417;DHT22;28421;51.030;4.006;2022-07-06T02:40:16;11.50;99.90
29417;DHT22;28421;51.030;4.006;2022-07-06T02:42:42;12.10;99.90
29417;DHT22;28421;51.030;4.006;2022-07-06T02:45:09;12.40;99.90
29417;DHT22;28421;51.030;4.006;2022-07-06T02:47:35;12.30;99.90
29417;DHT22;28421;51.030;4.006;2022-07-06T02:50:05;12.20;99.90
29417;DHT22;28421;51.030;4.006;2022-07-06T02:52:31;12.20;99.90
29417;DHT22;28421;51.030;4.006;2022-07-06T02:54:59;11.80;99.90
29417;DHT22;28421;51.030;4.006;2022-07-06T02:57:26;11.70;99.90
29417;DHT22;28421;51.030;4.006;2022-07-06T02:59:52;11.80;99.90
29417;DHT22;28421;51.030;4.006;2022-07-06T03:04:45;11.80;99.90
29417;DHT22;28421;51.030;4.006;2022-07-06T03:09:37;11.60;99.90
29417;DHT22;28421;51.030;4.006;2022-07-06T03:12:03;11.40;99.90
29417;DHT22;28421;51.030;4.006;2022-07-06T03:14:31;11.50;99.90
29417;DHT22;28421;51.030;4.006;2022-07-06T03:16:57;11.30;99.90
29417;DHT22;28421;51.030;4.006;2022-07-06T03:19:23;11.30;99.90
29417;DHT22;28421;51.030;4.006;2022-07-06T03:21:49;11.30;99.90
29417;DHT22;28421;51.030;4.006;2022-07-06T03:24:14;11.70;99.90
29417;DHT22;28421;51.030;4.006;2022-07-06T03:26:40;12.00;99.90
29417;DHT22;28421;51.030;4.006;2022-07-06T03:29:06;11.70;99.90
29417;DHT22;28421;51.030;4.006;2022-07-06T03:31:32;11.50;99.90
29417;DHT22;28421;51.030;4.006;2022-07-06T03:33:57;11.40;99.90
29417;DHT22;28421;51.030;4.006;2022-07-06T03:36:24;11.30;99.90
29417;DHT22;28421;51.030;4.006;2022-07-06T03:38:50;11.30;99.90
29417;DHT22;28421;51.030;4.006;2022-07-06T03:41:17;11.20;99.90
29417;DHT22;28421;51.030;4.006;2022-07-06T03:43:43;11.20;99.90
29417;DHT22;28421;51.030;4.006;2022-07-06T03:46:09;11.20;99.90
29417;DHT22;28421;51.030;4.006;2022-07-06T03:48:34;11.40;99.90
29417;DHT22;28421;51.030;4.006;2022-07-06T03:51:02;11.80;99.90
29417;DHT22;28421;51.030;4.006;2022-07-06T03:53:28;11.90;99.90
29417;DHT22;28421;51.030;4.006;2022-07-06T03:55:53;11.90;99.90
29417;DHT22;28421;51.030;4.006;2022-07-06T03:58:38;11.70;99.90
29417;DHT22;28421;51.030;4.006;2022-07-06T04:01:05;11.70;99.90
29417;DHT22;28421;51.030;4.006;2022-07-06T04:03:30;11.60;99.90
29417;DHT22;28421;51.030;4.006;2022-07-06T04:05:56;11.50;99.90
29417;DHT22;28421;51.030;4.006;2022-07-06T04:08:22;11.60;99.90
29417;DHT22;28421;51.030;4.006;2022-07-06T04:10:53;11.70;99.90
29417;DHT22;28421;51.030;4.006;2022-07-06T04:13:19;12.10;99.90
29417;DHT22;28421;51.030;4.006;2022-07-06T04:15:45;12.40;99.90
29417;DHT22;28421;51.030;4.006;2022-07-06T04:18:11;12.20;99.90
29417;DHT22;28421;51.030;4.006;2022-07-06T04:20:43;12.30;99.90
29417;DHT22;28421;51.030;4.006;2022-07-06T04:23:09;12.30;99.90
29417;DHT22;28421;51.030;4.006;2022-07-06T04:25:35;12.50;99.90
29417;DHT22;28421;51.030;4.006;2022-07-06T04:28:02;12.50;99.90
29417;DHT22;28421;51.030;4.006;2022-07-06T04:30:29;12.50;99.90
29417;DHT22;28421;51.030;4.006;2022-07-06T04:32:56;12.50;99.90
29417;DHT22;28421;51.030;4.006;2022-07-06T04:35:24;12.60;99.90
29417;DHT22;28421;51.030;4.006;2022-07-06T04:37:52;12.80;99.90
29417;DHT22;28421;51.030;4.006;2022-07-06T04:40:20;13.10;99.90
29417;DHT22;28421;51.030;4.006;2022-07-06T04:42:49;13.00;99.90
29417;DHT22;28421;51.030;4.006;2022-07-06T04:45:15;13.00;99.90
29417;DHT22;28421;51.030;4.006;2022-07-06T04:47:41;13.00;99.90
29417;DHT22;28421;51.030;4.006;2022-07-06T04:50:08;13.20;99.90
29417;DHT22;28421;51.030;4.006;2022-07-06T04:52:34;13.20;99.90
29417;DHT22;28421;51.030;4.006;2022-07-06T04:55:00;13.30;99.90
29417;DHT22;28421;51.030;4.006;2022-07-06T04:57:26;13.30;99.90
29417;DHT22;28421;51.030;4.006;2022-07-06T04:59:57;13.40;99.90
29417;DHT22;28421;51.030;4.006;2022-07-06T05:02:23;13.30;99.90
29417;DHT22;28421;51.030;4.006;2022-07-06T05:04:48;13.30;99.90
29417;DHT22;28421;51.030;4.006;2022-07-06T05:07:15;13.10;99.90
29417;DHT22;28421;51.030;4.006;2022-07-06T05:09:41;13.20;99.90
29417;DHT22;28421;51.030;4.006;2022-07-06T05:12:07;13.70;99.90
29417;DHT22;28421;51.030;4.006;2022-07-06T05:14:33;13.40;99.90
29417;DHT22;28421;51.030;4.006;2022-07-06T05:16:59;13.80;99.90
29417;DHT22;28421;51.030;4.006;2022-07-06T05:19:25;13.60;99.90
29417;DHT22;28421;51.030;4.006;2022-07-06T05:21:51;13.90;99.90
29417;DHT22;28421;51.030;4.006;2022-07-06T05:24:17;14.00;99.90
29417;DHT22;28421;51.030;4.006;2022-07-06T05:26:45;14.20;99.90
29417;DHT22;28421;51.030;4.006;2022-07-06T05:29:11;14.50;99.90
29417;DHT22;28421;51.030;4.006;2022-07-06T05:31:37;14.50;99.90
29417;DHT22;28421;51.030;4.006;2022-07-06T05:34:03;14.60;99.90
29417;DHT22;28421;51.030;4.006;2022-07-06T05:36:29;14.70;99.90
29417;DHT22;28421;51.030;4.006;2022-07-06T05:38:55;15.00;99.90
29417;DHT22;28421;51.030;4.006;2022-07-06T05:46:14;15.40;99.90
29417;DHT22;28421;51.030;4.006;2022-07-06T05:58:46;15.50;99.90
29417;DHT22;28421;51.030;4.006;2022-07-06T06:01:12;15.50;99.90
29417;DHT22;28421;51.030;4.006;2022-07-06T06:06:10;15.70;99.90
29417;DHT22;28421;51.030;4.006;2022-07-06T06:11:04;16.10;99.90
29417;DHT22;28421;51.030;4.006;2022-07-06T06:15:56;16.40;99.90
29417;DHT22;28421;51.030;4.006;2022-07-06T06:18:23;16.60;99.90
29417;DHT22;28421;51.030;4.006;2022-07-06T06:20:48;17.10;99.90
29417;DHT22;28421;51.030;4.006;2022-07-06T06:25:40;17.00;99.90
29417;DHT22;28421;51.030;4.006;2022-07-06T06:28:08;16.80;99.90
29417;DHT22;28421;51.030;4.006;2022-07-06T06:30:34;17.30;99.90
29417;DHT22;28421;51.030;4.006;2022-07-06T06:33:10;17.10;99.90
29417;DHT22;28421;51.030;4.006;2022-07-06T06:35:37;17.40;99.90
29417;DHT22;28421;51.030;4.006;2022-07-06T06:38:03;17.50;99.90
29417;DHT22;28421;51.030;4.006;2022-07-06T06:42:55;17.90;99.90
29417;DHT22;28421;51.030;4.006;2022-07-06T06:47:48;17.80;99.90
29417;DHT22;28421;51.030;4.006;2022-07-06T06:50:13;18.00;99.90
29417;DHT22;28421;51.030;4.006;2022-07-06T06:55:06;17.90;99.90
29417;DHT22;28421;51.030;4.006;2022-07-06T06:57:31;17.90;99.90
29417;DHT22;28421;51.030;4.006;2022-07-06T07:02:23;18.10;99.90
29417;DHT22;28421;51.030;4.006;2022-07-06T07:04:49;18.80;99.90
29417;DHT22;28421;51.030;4.006;2022-07-06T07:07:15;18.90;99.90
29417;DHT22;28421;51.030;4.006;2022-07-06T07:09:41;18.40;99.90
29417;DHT22;28421;51.030;4.006;2022-07-06T07:12:07;18.80;99.90
29417;DHT22;28421;51.030;4.006;2022-07-06T07:14:32;18.90;99.90
29417;DHT22;28421;51.030;4.006;2022-07-06T07:16:58;18.90;99.90
29417;DHT22;28421;51.030;4.006;2022-07-06T07:19:24;18.50;99.90
29417;DHT22;28421;51.030;4.006;2022-07-06T07:21:50;18.10;99.90
29417;DHT22;28421;51.030;4.006;2022-07-06T07:26:41;18.30;99.90
29417;DHT22;28421;51.030;4.006;2022-07-06T07:29:07;18.20;99.90
29417;DHT22;28421;51.030;4.006;2022-07-06T07:31:33;18.60;99.90
29417;DHT22;28421;51.030;4.006;2022-07-06T07:33:59;18.80;99.90
29417;DHT22;28421;51.030;4.006;2022-07-06T07:36:25;18.80;99.90
29417;DHT22;28421;51.030;4.006;2022-07-06T07:38:51;18.40;99.90
29417;DHT22;28421;51.030;4.006;2022-07-06T07:41:16;18.30;99.90
29417;DHT22;28421;51.030;4.006;2022-07-06T07:43:43;18.20;99.90
29417;DHT22;28421;51.030;4.006;2022-07-06T07:46:09;18.30;99.90
29417;DHT22;28421;51.030;4.006;2022-07-06T07:48:35;18.80;99.90
29417;DHT22;28421;51.030;4.006;2022-07-06T07:51:01;18.80;99.90
29417;DHT22;28421;51.030;4.006;2022-07-06T07:53:27;19.20;99.90
29417;DHT22;28421;51.030;4.006;2022-07-06T07:55:52;19.50;99.90
29417;DHT22;28421;51.030;4.006;2022-07-06T07:58:18;19.00;99.90
29417;DHT22;28421;51.030;4.006;2022-07-06T08:00:45;19.20;99.90
29417;DHT22;28421;51.030;4.006;2022-07-06T08:05:37;18.90;99.90
29417;DHT22;28421;51.030;4.006;2022-07-06T08:08:03;19.40;99.90
29417;DHT22;28421;51.030;4.006;2022-07-06T08:10:30;19.40;99.90
29417;DHT22;28421;51.030;4.006;2022-07-06T08:12:55;19.50;99.90
29417;DHT22;28421;51.030;4.006;2022-07-06T08:15:21;20.20;99.90
29417;DHT22;28421;51.030;4.006;2022-07-06T08:17:47;19.30;99.90
29417;DHT22;28421;51.030;4.006;2022-07-06T08:20:14;19.50;99.90
29417;DHT22;28421;51.030;4.006;2022-07-06T08:22:41;19.80;99.90
29417;DHT22;28421;51.030;4.006;2022-07-06T08:25:07;19.30;99.90
29417;DHT22;28421;51.030;4.006;2022-07-06T08:27:33;19.80;99.90
29417;DHT22;28421;51.030;4.006;2022-07-06T08:29:59;19.20;99.90
29417;DHT22;28421;51.030;4.006;2022-07-06T08:32:26;19.30;99.90
29417;DHT22;28421;51.030;4.006;2022-07-06T08:34:51;19.40;99.90
29417;DHT22;28421;51.030;4.006;2022-07-06T08:37:18;20.40;99.90
29417;DHT22;28421;51.030;4.006;2022-07-06T08:39:44;20.10;99.90
29417;DHT22;28421;51.030;4.006;2022-07-06T08:42:12;19.90;99.90
29417;DHT22;28421;51.030;4.006;2022-07-06T08:44:38;20.90;99.90
29417;DHT22;28421;51.030;4.006;2022-07-06T08:47:07;20.90;99.90
29417;DHT22;28421;51.030;4.006;2022-07-06T08:49:36;21.20;99.90
29417;DHT22;28421;51.030;4.006;2022-07-06T08:52:04;21.10;99.90
29417;DHT22;28421;51.030;4.006;2022-07-06T08:54:30;21.40;99.90
29417;DHT22;28421;51.030;4.006;2022-07-06T08:56:56;21.40;99.90
29417;DHT22;28421;51.030;4.006;2022-07-06T08:59:22;21.20;99.90
29417;DHT22;28421;51.030;4.006;2022-07-06T09:01:48;21.20;99.90
29417;DHT22;28421;51.030;4.006;2022-07-06T09:04:16;21.30;99.90
29417;DHT22;28421;51.030;4.006;2022-07-06T09:06:44;21.00;99.90
29417;DHT22;28421;51.030;4.006;2022-07-06T09:09:22;21.00;99.90
29417;DHT22;28421;51.030;4.006;2022-07-06T09:11:49;21.60;99.90
29417;DHT22;28421;51.030;4.006;2022-07-06T09:14:16;20.80;99.90
29417;DHT22;28421;51.030;4.006;2022-07-06T09:16:42;21.20;99.90
29417;DHT22;28421;51.030;4.006;2022-07-06T09:19:10;21.50;99.90
29417;DHT22;28421;51.030;4.006;2022-07-06T09:21:37;21.90;99.90
29417;DHT22;28421;51.030;4.006;2022-07-06T09:24:07;21.10;99.90
29417;DHT22;28421;51.030;4.006;2022-07-06T09:26:34;21.50;99.90
29417;DHT22;28421;51.030;4.006;2022-07-06T09:29:00;21.80;99.90
29417;DHT22;28421;51.030;4.006;2022-07-06T09:31:26;21.50;99.90
29417;DHT22;28421;51.030;4.006;2022-07-06T09:34:04;21.70;99.90
29417;DHT22;28421;51.030;4.006;2022-07-06T09:36:51;21.70;99.90
29417;DHT22;28421;51.030;4.006;2022-07-06T09:39:25;22.00;99.90
29417;DHT22;28421;51.030;4.006;2022-07-06T09:41:56;22.10;99.90
29417;DHT22;28421;51.030;4.006;2022-07-06T09:44:26;21.90;99.90
29417;DHT22;28421;51.030;4.006;2022-07-06T09:46:55;22.30;99.90
29417;DHT22;28421;51.030;4.006;2022-07-06T09:49:21;22.10;99.90
29417;DHT22;28421;51.030;4.006;2022-07-06T09:51:48;21.20;99.90
29417;DHT22;28421;51.030;4.006;2022-07-06T09:54:15;21.40;99.90
29417;DHT22;28421;51.030;4.006;2022-07-06T09:56:46;21.40;99.90
29417;DHT22;28421;51.030;4.006;2022-07-06T09:59:19;21.20;99.90
29417;DHT22;28421;51.030;4.006;2022-07-06T10:01:46;21.30;99.90
29417;DHT22;28421;51.030;4.006;2022-07-06T10:04:13;21.10;99.90
29417;DHT22;28421;51.030;4.006;2022-07-06T10:06:41;20.50;99.90
29417;DHT22;28421;51.030;4.006;2022-07-06T10:09:08;20.70;99.90
29417;DHT22;28421;51.030;4.006;2022-07-06T10:11:38;20.80;99.90
29417;DHT22;28421;51.030;4.006;2022-07-06T10:14:05;21.50;99.90
29417;DHT22;28421;51.030;4.006;2022-07-06T10:16:31;22.40;99.90
29417;DHT22;28421;51.030;4.006;2022-07-06T10:18:57;22.30;99.90
29417;DHT22;28421;51.030;4.006;2022-07-06T10:21:24;22.50;99.90
29417;DHT22;28421;51.030;4.006;2022-07-06T10:23:51;22.80;99.90
29417;DHT22;28421;51.030;4.006;2022-07-06T10:26:17;22.00;99.90
29417;DHT22;28421;51.030;4.006;2022-07-06T10:28:44;22.20;99.90
29417;DHT22;28421;51.030;4.006;2022-07-06T10:31:14;22.60;99.90
29417;DHT22;28421;51.030;4.006;2022-07-06T10:33:41;22.70;99.90
29417;DHT22;28421;51.030;4.006;2022-07-06T10:36:07;22.10;99.90
29417;DHT22;28421;51.030;4.006;2022-07-06T10:38:34;22.10;99.90
29417;DHT22;28421;51.030;4.006;2022-07-06T10:41:08;22.40;99.90
29417;DHT22;28421;51.030;4.006;2022-07-06T10:43:38;22.20;99.90
29417;DHT22;28421;51.030;4.006;2022-07-06T10:48:38;22.70;99.50
29417;DHT22;28421;51.030;4.006;2022-07-06T10:53:36;21.80;99.90
29417;DHT22;28421;51.030;4.006;2022-07-06T10:56:08;22.10;99.80
29417;DHT22;28421;51.030;4.006;2022-07-06T10:58:50;23.30;99.90
29417;DHT22;28421;51.030;4.006;2022-07-06T11:01:22;23.10;99.90
29417;DHT22;28421;51.030;4.006;2022-07-06T11:06:22;22.90;99.20
29417;DHT22;28421;51.030;4.006;2022-07-06T11:08:55;23.40;99.90
29417;DHT22;28421;51.030;4.006;2022-07-06T11:13:55;24.00;98.80
29417;DHT22;28421;51.030;4.006;2022-07-06T11:16:23;23.60;98.90
29417;DHT22;28421;51.030;4.006;2022-07-06T11:24:08;23.20;98.70
29417;DHT22;28421;51.030;4.006;2022-07-06T11:26:35;23.80;99.90
29417;DHT22;28421;51.030;4.006;2022-07-06T11:29:07;23.60;99.90
29417;DHT22;28421;51.030;4.006;2022-07-06T11:31:39;23.00;99.90
29417;DHT22;28421;51.030;4.006;2022-07-06T11:34:06;23.20;99.90
29417;DHT22;28421;51.030;4.006;2022-07-06T11:36:33;23.00;97.90
29417;DHT22;28421;51.030;4.006;2022-07-06T11:38:59;23.50;98.30
29417;DHT22;28421;51.030;4.006;2022-07-06T11:41:25;23.90;97.70
29417;DHT22;28421;51.030;4.006;2022-07-06T11:46:31;23.80;96.80
29417;DHT22;28421;51.030;4.006;2022-07-06T11:49:07;23.80;97.50
29417;DHT22;28421;51.030;4.006;2022-07-06T11:51:36;24.00;97.30
29417;DHT22;28421;51.030;4.006;2022-07-06T11:54:15;24.00;97.50
29417;DHT22;28421;51.030;4.006;2022-07-06T11:57:00;24.20;97.30
29417;DHT22;28421;51.030;4.006;2022-07-06T11:59:32;24.40;96.10
29417;DHT22;28421;51.030;4.006;2022-07-06T12:04:33;23.60;96.90
29417;DHT22;28421;51.030;4.006;2022-07-06T12:07:18;22.40;97.80
29417;DHT22;28421;51.030;4.006;2022-07-06T12:09:46;22.20;99.90
29417;DHT22;28421;51.030;4.006;2022-07-06T12:12:12;22.00;98.30
29417;DHT22;28421;51.030;4.006;2022-07-06T12:14:40;22.40;98.60
29417;DHT22;28421;51.030;4.006;2022-07-06T12:17:07;23.20;99.90
29417;DHT22;28421;51.030;4.006;2022-07-06T12:19:34;23.50;99.90
29417;DHT22;28421;51.030;4.006;2022-07-06T12:22:00;23.40;97.80
29417;DHT22;28421;51.030;4.006;2022-07-06T12:24:30;22.70;99.90
29417;DHT22;28421;51.030;4.006;2022-07-06T12:26:57;23.30;99.90
29417;DHT22;28421;51.030;4.006;2022-07-06T12:29:23;23.00;99.80
29417;DHT22;28421;51.030;4.006;2022-07-06T12:31:55;23.40;99.90
29417;DHT22;28421;51.030;4.006;2022-07-06T12:34:29;23.60;99.90
29417;DHT22;28421;51.030;4.006;2022-07-06T12:37:06;23.30;99.90
29417;DHT22;28421;51.030;4.006;2022-07-06T12:39:39;24.00;99.90
29417;DHT22;28421;51.030;4.006;2022-07-06T12:42:05;24.30;99.90
29417;DHT22;28421;51.030;4.006;2022-07-06T12:44:32;24.30;97.80
29417;DHT22;28421;51.030;4.006;2022-07-06T12:47:06;23.60;99.90
29417;DHT22;28421;51.030;4.006;2022-07-06T12:49:32;23.50;96.70
29417;DHT22;28421;51.030;4.006;2022-07-06T12:52:10;23.30;99.90
29417;DHT22;28421;51.030;4.006;2022-07-06T12:57:17;23.60;99.90
29417;DHT22;28421;51.030;4.006;2022-07-06T13:05:15;23.30;96.40
29417;DHT22;28421;51.030;4.006;2022-07-06T13:07:49;23.40;96.90
29417;DHT22;28421;51.030;4.006;2022-07-06T13:10:15;20.40;96.00
29417;DHT22;28421;51.030;4.006;2022-07-06T13:12:42;22.70;99.90
29417;DHT22;28421;51.030;4.006;2022-07-06T13:15:09;23.50;99.90
29417;DHT22;28421;51.030;4.006;2022-07-06T13:17:35;23.40;97.50
29417;DHT22;28421;51.030;4.006;2022-07-06T13:20:03;23.80;97.50
29417;DHT22;28421;51.030;4.006;2022-07-06T13:22:29;24.20;96.80
29417;DHT22;28421;51.030;4.006;2022-07-06T13:24:55;23.70;96.40
29417;DHT22;28421;51.030;4.006;2022-07-06T13:27:20;23.90;97.30
29417;DHT22;28421;51.030;4.006;2022-07-06T13:29:46;24.90;99.90
29417;DHT22;28421;51.030;4.006;2022-07-06T13:32:12;24.80;96.20
29417;DHT22;28421;51.030;4.006;2022-07-06T13:34:38;25.10;95.80
29417;DHT22;28421;51.030;4.006;2022-07-06T13:37:04;25.10;95.70
29417;DHT22;28421;51.030;4.006;2022-07-06T13:39:31;24.60;95.40
29417;DHT22;28421;51.030;4.006;2022-07-06T13:41:57;24.50;96.20
29417;DHT22;28421;51.030;4.006;2022-07-06T13:44:24;24.90;96.10
29417;DHT22;28421;51.030;4.006;2022-07-06T13:46:50;25.20;99.90
29417;DHT22;28421;51.030;4.006;2022-07-06T13:49:16;25.50;99.90
29417;DHT22;28421;51.030;4.006;2022-07-06T13:51:42;25.30;99.90
29417;DHT22;28421;51.030;4.006;2022-07-06T13:54:09;26.20;99.90
29417;DHT22;28421;51.030;4.006;2022-07-06T13:56:37;24.40;99.90
29417;DHT22;28421;51.030;4.006;2022-07-06T14:01:29;24.80;99.90
29417;DHT22;28421;51.030;4.006;2022-07-06T14:03:55;24.70;99.90
29417;DHT22;28421;51.030;4.006;2022-07-06T14:06:21;24.90;99.90
29417;DHT22;28421;51.030;4.006;2022-07-06T14:08:47;25.20;99.90
29417;DHT22;28421;51.030;4.006;2022-07-06T14:11:13;24.80;99.90
29417;DHT22;28421;51.030;4.006;2022-07-06T14:13:38;24.60;99.90
29417;DHT22;28421;51.030;4.006;2022-07-06T14:16:05;24.90;99.90
29417;DHT22;28421;51.030;4.006;2022-07-06T14:18:31;25.10;95.30
29417;DHT22;28421;51.030;4.006;2022-07-06T14:20:58;25.60;94.80
29417;DHT22;28421;51.030;4.006;2022-07-06T14:23:24;25.90;94.00
29417;DHT22;28421;51.030;4.006;2022-07-06T14:25:50;25.60;95.20
29417;DHT22;28421;51.030;4.006;2022-07-06T14:28:16;26.10;95.20
29417;DHT22;28421;51.030;4.006;2022-07-06T14:30:43;26.40;94.50
29417;DHT22;28421;51.030;4.006;2022-07-06T14:33:13;25.70;99.90
29417;DHT22;28421;51.030;4.006;2022-07-06T14:35:49;25.80;99.90
29417;DHT22;28421;51.030;4.006;2022-07-06T14:38:17;25.60;99.90
29417;DHT22;28421;51.030;4.006;2022-07-06T14:40:43;25.70;94.40
29417;DHT22;28421;51.030;4.006;2022-07-06T14:43:09;25.50;94.30
29417;DHT22;28421;51.030;4.006;2022-07-06T14:45:36;25.00;99.90
29417;DHT22;28421;51.030;4.006;2022-07-06T14:50:28;24.60;98.00
29417;DHT22;28421;51.030;4.006;2022-07-06T14:52:54;24.70;96.20
29417;DHT22;28421;51.030;4.006;2022-07-06T14:55:20;24.60;99.90
29417;DHT22;28421;51.030;4.006;2022-07-06T14:57:46;25.20;99.90
29417;DHT22;28421;51.030;4.006;2022-07-06T15:00:13;24.00;99.40
29417;DHT22;28421;51.030;4.006;2022-07-06T15:02:39;24.20;99.90
29417;DHT22;28421;51.030;4.006;2022-07-06T15:05:05;24.30;99.90
29417;DHT22;28421;51.030;4.006;2022-07-06T15:09:58;23.60;99.90
29417;DHT22;28421;51.030;4.006;2022-07-06T15:12:24;23.50;99.70
29417;DHT22;28421;51.030;4.006;2022-07-06T15:14:49;24.00;99.90
29417;DHT22;28421;51.030;4.006;2022-07-06T15:17:15;24.30;99.90
29417;DHT22;28421;51.030;4.006;2022-07-06T15:22:09;24.60;97.00
29417;DHT22;28421;51.030;4.006;2022-07-06T15:27:04;25.40;99.90
29417;DHT22;28421;51.030;4.006;2022-07-06T15:31:56;24.40;99.90
29417;DHT22;28421;51.030;4.006;2022-07-06T15:39:16;26.90;97.70
29417;DHT22;28421;51.030;4.006;2022-07-06T15:49:00;24.60;99.90
29417;DHT22;28421;51.030;4.006;2022-07-06T15:53:52;24.30;99.90
29417;DHT22;28421;51.030;4.006;2022-07-06T15:56:18;24.20;99.70
29417;DHT22;28421;51.030;4.006;2022-07-06T16:01:10;24.40;99.00
29417;DHT22;28421;51.030;4.006;2022-07-06T16:03:36;24.90;99.90
29417;DHT22;28421;51.030;4.006;2022-07-06T16:06:06;25.00;99.90
29417;DHT22;28421;51.030;4.006;2022-07-06T16:08:32;24.30;99.90
29417;DHT22;28421;51.030;4.006;2022-07-06T16:10:58;24.10;99.90
29417;DHT22;28421;51.030;4.006;2022-07-06T16:13:24;24.70;99.90
29417;DHT22;28421;51.030;4.006;2022-07-06T16:15:49;25.00;99.90
29417;DHT22;28421;51.030;4.006;2022-07-06T16:25:34;24.60;96.00
29417;DHT22;28421;51.030;4.006;2022-07-06T16:32:53;25.30;94.80
29417;DHT22;28421;51.030;4.006;2022-07-06T16:35:20;24.80;95.30
29417;DHT22;28421;51.030;4.006;2022-07-06T16:37:46;24.70;99.90
29417;DHT22;28421;51.030;4.006;2022-07-06T16:40:12;24.20;99.90
29417;DHT22;28421;51.030;4.006;2022-07-06T16:42:38;24.40;99.90
29417;DHT22;28421;51.030;4.006;2022-07-06T16:45:05;24.30;95.20
29417;DHT22;28421;51.030;4.006;2022-07-06T16:49:57;24.40;99.90
29417;DHT22;28421;51.030;4.006;2022-07-06T16:52:26;24.40;99.90
29417;DHT22;28421;51.030;4.006;2022-07-06T16:54:52;24.60;99.90
29417;DHT22;28421;51.030;4.006;2022-07-06T16:57:18;24.30;97.70
29417;DHT22;28421;51.030;4.006;2022-07-06T16:59:43;24.20;99.90
29417;DHT22;28421;51.030;4.006;2022-07-06T17:19:12;23.30;99.90
29417;DHT22;28421;51.030;4.006;2022-07-06T17:21:38;23.10;99.90
29417;DHT22;28421;51.030;4.006;2022-07-06T17:24:04;22.80;99.30
29417;DHT22;28421;51.030;4.006;2022-07-06T17:26:30;23.10;99.90
29417;DHT22;28421;51.030;4.006;2022-07-06T17:28:56;22.50;99.90
29417;DHT22;28421;51.030;4.006;2022-07-06T17:31:22;22.60;97.70
29417;DHT22;28421;51.030;4.006;2022-07-06T17:33:48;22.80;99.90
29417;DHT22;28421;51.030;4.006;2022-07-06T17:38:40;22.30;99.90
29417;DHT22;28421;51.030;4.006;2022-07-06T17:41:06;22.90;99.60
29417;DHT22;28421;51.030;4.006;2022-07-06T17:45:58;22.60;99.90
29417;DHT22;28421;51.030;4.006;2022-07-06T17:53:16;22.40;99.90
29417;DHT22;28421;51.030;4.006;2022-07-06T17:55:41;22.40;99.90
29417;DHT22;28421;51.030;4.006;2022-07-06T18:00:35;22.10;99.90
29417;DHT22;28421;51.030;4.006;2022-07-06T18:03:00;22.00;99.90
29417;DHT22;28421;51.030;4.006;2022-07-06T18:05:26;21.90;99.90
29417;DHT22;28421;51.030;4.006;2022-07-06T18:07:53;22.20;99.90
29417;DHT22;28421;51.030;4.006;2022-07-06T18:10:20;22.40;99.90
29417;DHT22;28421;51.030;4.006;2022-07-06T18:12:45;22.40;99.90
29417;DHT22;28421;51.030;4.006;2022-07-06T18:15:11;22.40;99.90